TAF and METAR

METAR for El Alto International Airport

SLLP 290200Z 10005KT 070V130 9999 NSC 03/M13 Q1038
Report created 29. mai 04:00
wind 5 knots from E (100°) Wind direction varies from ENE to SE visibility > 10km No significant clouds. Temperature 3° with dewpoint at -13° (Humidity 29.69%) Pressure 1038 hPa

TAF for El Alto International Airport

TAF SLLP 282200Z 2900/2924 05005KT 9999 NSC TX17/2920Z TNM04/2910Z BECMG 2914/2916 21008KT
Report created 29. mai 00:00

between 29. mai 02:00 - 29. mai 02:00

wind 5 knots from NE (050°) visibility > 10km No significant clouds. Max temperature 17° expected today at around 22 o'clock Min temperature -04° expected today at around 12 o'clock

becoming between 29. mai 16:00 - 29. mai 18:00

wind 8 knots from SSW (210°)